createdAt,value
2023-02-11T00:02:27.909Z,6.40
2023-02-11T00:06:32.294Z,6.50
2023-02-11T00:10:35.270Z,6.50
2023-02-11T00:14:38.227Z,6.50
2023-02-11T00:18:42.389Z,6.50
2023-02-11T00:22:45.448Z,6.50
2023-02-11T00:26:48.391Z,6.50
2023-02-11T00:30:56.485Z,6.50
2023-02-11T00:35:00.856Z,6.50
2023-02-11T00:39:03.882Z,6.50
2023-02-11T00:43:06.821Z,6.50
2023-02-11T00:47:09.892Z,6.50
2023-02-11T00:51:14.366Z,6.50
2023-02-11T00:55:18.095Z,6.50
2023-02-11T00:59:21.078Z,6.50
2023-02-11T01:03:24.298Z,6.50
2023-02-11T01:07:29.188Z,6.50
2023-02-11T01:11:32.183Z,6.50
2023-02-11T01:15:35.181Z,6.50
2023-02-11T01:19:38.622Z,6.50
2023-02-11T01:23:43.202Z,6.50
2023-02-11T01:27:46.375Z,6.60
2023-02-11T01:31:49.834Z,6.60
2023-02-11T01:35:53.445Z,6.60
2023-02-11T01:39:57.878Z,6.60
2023-02-11T01:44:15.855Z,6.60
2023-02-11T01:48:23.456Z,6.60
2023-02-11T01:52:31.424Z,6.60
2023-02-11T01:56:57.600Z,6.70
2023-02-11T02:01:03.109Z,6.70
2023-02-11T02:05:12.344Z,6.70
2023-02-11T02:09:21.289Z,6.70
2023-02-11T02:13:25.912Z,6.70
2023-02-11T02:17:41.642Z,6.80
2023-02-11T02:22:07.144Z,6.80
2023-02-11T02:26:31.028Z,6.80
2023-02-11T02:31:08.054Z,6.80
2023-02-11T02:35:24.592Z,6.80
2023-02-11T02:39:32.668Z,6.80
2023-02-11T02:43:37.544Z,6.80
2023-02-11T02:47:40.556Z,6.80
2023-02-11T02:52:16.526Z,6.90
2023-02-11T02:56:28.237Z,6.90
2023-02-11T03:00:36.737Z,6.90
2023-02-11T03:04:49.522Z,6.90
2023-02-11T03:08:58.607Z,6.90
2023-02-11T03:13:04.517Z,6.90
2023-02-11T03:17:09.887Z,6.90
2023-02-11T03:21:14.860Z,6.90
2023-02-11T03:25:20.458Z,6.90
2023-02-11T03:29:34.857Z,7.00
2023-02-11T03:33:42.421Z,6.90
2023-02-11T03:37:51.545Z,7.00
2023-02-11T03:41:58.905Z,7.00
2023-02-11T03:46:03.527Z,7.00
2023-02-11T03:50:09.911Z,7.00
2023-02-11T03:54:17.833Z,7.00
2023-02-11T03:58:22.267Z,6.90
2023-02-11T04:02:30.170Z,6.90
2023-02-11T04:06:33.203Z,6.90
2023-02-11T04:10:36.218Z,6.90
2023-02-11T04:14:40.587Z,6.90
2023-02-11T04:18:43.588Z,6.90
2023-02-11T04:22:46.610Z,6.80
2023-02-11T04:26:49.645Z,6.80
2023-02-11T04:30:53.952Z,6.80
2023-02-11T04:34:56.939Z,6.80
2023-02-11T04:38:59.884Z,6.80
2023-02-11T04:43:02.855Z,6.80
2023-02-11T04:47:07.245Z,6.80
2023-02-11T04:51:10.273Z,6.80
2023-02-11T04:55:13.253Z,6.80
2023-02-11T04:59:16.335Z,6.90
2023-02-11T05:03:20.663Z,6.90
2023-02-11T05:07:23.978Z,6.90
2023-02-11T05:11:27.608Z,6.90
2023-02-11T05:15:31.570Z,6.90
2023-02-11T05:19:35.985Z,6.90
2023-02-11T05:23:39.596Z,6.90
2023-02-11T05:27:42.576Z,7.00
2023-02-11T05:31:45.525Z,7.00
2023-02-11T05:35:50.095Z,7.00
2023-02-11T05:39:53.381Z,7.00
2023-02-11T05:43:56.342Z,7.00
2023-02-11T05:47:59.618Z,7.00
2023-02-11T05:52:04.041Z,7.10
2023-02-11T05:56:07.740Z,7.10
2023-02-11T06:00:12.809Z,7.10
2023-02-11T06:04:15.803Z,7.10
2023-02-11T06:08:20.134Z,7.10
2023-02-11T06:12:23.078Z,7.10
2023-02-11T06:16:26.129Z,7.10
2023-02-11T06:20:29.463Z,7.10
2023-02-11T06:24:58.595Z,7.10
2023-02-11T06:28:56.715Z,7.10
2023-02-11T06:32:59.701Z,7.20
2023-02-11T06:37:02.800Z,7.20
2023-02-11T06:41:21.388Z,7.20
2023-02-11T06:45:24.449Z,7.20
2023-02-11T06:49:27.417Z,7.20
2023-02-11T06:53:30.412Z,7.20
2023-02-11T06:57:34.814Z,7.20
2023-02-11T07:01:37.833Z,7.20
2023-02-11T07:05:43.800Z,7.20
2023-02-11T07:09:46.898Z,7.20
2023-02-11T07:13:51.778Z,7.20
2023-02-11T07:17:54.737Z,7.20
2023-02-11T07:21:57.759Z,7.20
2023-02-11T07:26:05.197Z,7.20
2023-02-11T07:30:11.087Z,7.20
2023-02-11T07:34:14.055Z,7.20
2023-02-11T07:38:17.028Z,7.30
2023-02-11T07:42:20.007Z,7.30
2023-02-11T07:46:26.087Z,7.30
2023-02-11T07:50:29.139Z,7.30
2023-02-11T07:54:32.098Z,7.30
2023-02-11T07:58:35.749Z,7.30
2023-02-11T08:02:40.067Z,7.20
2023-02-11T08:06:44.735Z,7.30
2023-02-11T08:10:47.737Z,7.30
2023-02-11T08:14:51.318Z,7.30
2023-02-11T08:18:57.627Z,7.30
2023-02-11T08:23:02.143Z,7.30
2023-02-11T08:27:05.352Z,7.30
2023-02-11T08:31:09.329Z,7.30
2023-02-11T08:35:13.741Z,7.30
2023-02-11T08:39:20.488Z,7.30
2023-02-11T08:43:24.034Z,7.30
2023-02-11T08:47:27.168Z,7.30
2023-02-11T08:51:32.475Z,7.30
2023-02-11T08:55:35.584Z,7.30
2023-02-11T08:59:40.069Z,7.30
2023-02-11T09:03:43.135Z,7.30
2023-02-11T09:07:47.451Z,7.30
2023-02-11T09:11:50.411Z,7.30
2023-02-11T09:15:53.378Z,7.30
2023-02-11T09:19:56.333Z,7.40
2023-02-11T09:24:00.662Z,7.40
2023-02-11T09:28:03.626Z,7.40
2023-02-11T09:32:09.778Z,7.40
2023-02-11T09:36:12.881Z,7.40
2023-02-11T09:40:18.014Z,7.40
2023-02-11T09:44:23.204Z,7.40
2023-02-11T09:48:26.352Z,7.40
2023-02-11T09:52:38.254Z,7.50
2023-02-11T09:56:42.597Z,7.50
2023-02-11T10:00:50.725Z,7.50
2023-02-11T10:05:14.488Z,7.60
2023-02-11T10:09:29.308Z,7.60
2023-02-11T10:13:47.757Z,7.60
2023-02-11T10:17:58.836Z,7.70
2023-02-11T10:22:07.000Z,7.70
2023-02-11T10:26:12.946Z,7.70
2023-02-11T10:30:21.881Z,7.80
2023-02-11T10:34:24.755Z,7.80
2023-02-11T10:38:28.595Z,7.90
2023-02-11T10:42:31.654Z,7.90
2023-02-11T10:46:40.238Z,8.00
2023-02-11T10:50:43.122Z,8.00
2023-02-11T10:54:56.845Z,8.10
2023-02-11T10:59:01.331Z,8.10
2023-02-11T11:03:06.613Z,8.20
2023-02-11T11:07:16.914Z,8.20
2023-02-11T11:11:21.235Z,8.20
2023-02-11T11:15:26.367Z,8.30
2023-02-11T11:19:30.674Z,8.30
2023-02-11T11:23:36.061Z,8.30
2023-02-11T11:27:39.702Z,8.30
2023-02-11T11:31:51.140Z,8.30
2023-02-11T11:36:07.394Z,8.40
2023-02-11T11:40:23.507Z,8.40
2023-02-11T11:44:32.827Z,8.40
2023-02-11T11:48:39.795Z,8.40
2023-02-11T11:52:51.874Z,8.50
2023-02-11T11:57:01.102Z,8.50
2023-02-11T12:01:17.268Z,8.60
2023-02-11T12:05:27.729Z,8.60
2023-02-11T12:09:37.253Z,8.60
2023-02-11T12:13:50.004Z,8.70
2023-02-11T12:17:58.381Z,8.70
2023-02-11T12:22:04.273Z,8.70
2023-02-11T12:26:16.405Z,8.70
2023-02-11T12:30:48.942Z,8.70
2023-02-11T12:35:02.643Z,8.80
2023-02-11T12:39:12.766Z,8.80
2023-02-11T12:43:21.576Z,8.80
2023-02-11T12:47:29.530Z,8.90
2023-02-11T12:51:43.806Z,8.90
2023-02-11T12:55:48.554Z,8.90
2023-02-11T13:00:00.133Z,9.00
2023-02-11T13:04:08.663Z,9.00
2023-02-11T13:08:15.087Z,9.00
2023-02-11T13:12:35.773Z,9.00
2023-02-11T13:16:41.966Z,9.10
2023-02-11T13:20:47.566Z,9.10
2023-02-11T13:24:57.628Z,9.10
2023-02-11T13:29:14.466Z,9.10
2023-02-11T13:33:35.280Z,9.10
2023-02-11T13:37:40.024Z,9.20
2023-02-11T13:41:45.123Z,9.20
2023-02-11T13:45:50.019Z,9.20
2023-02-11T13:49:54.712Z,9.20
2023-02-11T13:53:58.631Z,9.20
2023-02-11T13:58:36.476Z,9.20
2023-02-11T14:02:57.068Z,9.20
2023-02-11T14:07:47.165Z,9.30
2023-02-11T14:11:52.026Z,9.30
2023-02-11T14:16:10.368Z,9.30
2023-02-11T14:20:51.161Z,9.30
2023-02-11T14:24:58.162Z,9.30
2023-02-11T14:29:07.972Z,9.30
2023-02-11T14:33:41.119Z,9.30
2023-02-11T14:37:51.001Z,9.30
2023-02-11T14:41:55.789Z,9.30
2023-02-11T14:46:01.140Z,9.30
2023-02-11T14:50:04.290Z,9.30
2023-02-11T14:54:13.378Z,9.20
2023-02-11T14:58:20.132Z,9.20
2023-02-11T15:02:26.227Z,9.20
2023-02-11T15:06:32.789Z,9.20
2023-02-11T15:10:42.469Z,9.20
2023-02-11T15:14:51.653Z,9.30
2023-02-11T15:18:56.821Z,9.30
2023-02-11T15:23:03.671Z,9.30
2023-02-11T15:27:16.390Z,9.30
2023-02-11T15:31:24.269Z,9.30
2023-02-11T15:35:30.946Z,9.30
2023-02-11T15:39:37.424Z,9.30
2023-02-11T15:43:44.990Z,9.30
2023-02-11T15:47:50.172Z,9.30
2023-02-11T15:51:54.233Z,9.30
2023-02-11T15:56:02.997Z,9.30
2023-02-11T16:00:08.082Z,9.30
2023-02-11T16:04:17.139Z,9.30
2023-02-11T16:08:24.549Z,9.30
2023-02-11T16:12:27.805Z,9.30
2023-02-11T16:16:32.727Z,9.30
2023-02-11T16:20:36.979Z,9.30
2023-02-11T16:24:40.190Z,9.30
2023-02-11T16:28:42.993Z,9.30
2023-02-11T16:32:45.805Z,9.30
2023-02-11T16:36:51.185Z,9.30
2023-02-11T16:40:54.069Z,9.30
2023-02-11T16:44:56.899Z,9.30
2023-02-11T16:49:05.301Z,9.30
2023-02-11T16:53:11.640Z,9.30
2023-02-11T16:57:15.144Z,9.30
2023-02-11T17:01:18.044Z,9.30
2023-02-11T17:05:22.938Z,9.20
2023-02-11T17:09:30.541Z,9.30
2023-02-11T17:13:34.170Z,9.30
2023-02-11T17:17:37.011Z,9.30
2023-02-11T17:21:41.763Z,9.30
2023-02-11T17:25:45.884Z,9.30
2023-02-11T17:29:48.977Z,9.30
2023-02-11T17:33:51.904Z,9.30
2023-02-11T17:37:55.100Z,9.30
2023-02-11T17:41:59.238Z,9.30
2023-02-11T17:46:02.189Z,9.30
2023-02-11T17:50:05.160Z,9.30
2023-02-11T17:54:09.593Z,9.30
2023-02-11T17:58:13.713Z,9.30
2023-02-11T18:02:16.612Z,9.30
2023-02-11T18:06:19.436Z,9.30
2023-02-11T18:10:22.422Z,9.30
2023-02-11T18:14:26.629Z,9.30
2023-02-11T18:18:29.484Z,9.30
2023-02-11T18:22:36.585Z,9.30
2023-02-11T18:26:39.361Z,9.30
2023-02-11T18:30:43.737Z,9.30
2023-02-11T18:34:46.593Z,9.30
2023-02-11T18:38:49.414Z,9.30
2023-02-11T18:42:52.215Z,9.20
2023-02-11T18:46:56.373Z,9.20
2023-02-11T18:50:59.187Z,9.20
2023-02-11T18:55:02.006Z,9.20
2023-02-11T18:59:04.920Z,9.20
2023-02-11T19:03:09.099Z,9.30
2023-02-11T19:07:11.940Z,9.30
2023-02-11T19:11:17.518Z,9.30
2023-02-11T19:15:20.697Z,9.30
2023-02-11T19:19:26.014Z,9.30
2023-02-11T19:23:28.885Z,9.30
2023-02-11T19:27:31.685Z,9.30
2023-02-11T19:31:34.747Z,9.30
2023-02-11T19:35:39.018Z,9.30
2023-02-11T19:39:42.470Z,9.30
2023-02-11T19:43:47.029Z,9.30
2023-02-11T19:47:49.793Z,9.30
2023-02-11T19:51:55.279Z,9.30
2023-02-11T19:56:01.437Z,9.30
2023-02-11T20:00:05.335Z,9.30
2023-02-11T20:04:08.202Z,9.30
2023-02-11T20:08:12.408Z,9.30
2023-02-11T20:12:15.218Z,9.30
2023-02-11T20:16:18.937Z,9.30
2023-02-11T20:20:21.842Z,9.30
2023-02-11T20:24:26.410Z,9.30
2023-02-11T20:28:29.374Z,9.30
2023-02-11T20:32:37.863Z,9.30
2023-02-11T20:36:40.968Z,9.30
2023-02-11T20:40:45.195Z,9.30
2023-02-11T20:44:48.089Z,9.30
2023-02-11T20:48:51.517Z,9.30
2023-02-11T20:52:54.322Z,9.30
2023-02-11T20:56:58.473Z,9.40
2023-02-11T21:01:07.512Z,9.40
2023-02-11T21:05:10.306Z,9.40
2023-02-11T21:09:14.296Z,9.40
2023-02-11T21:13:18.453Z,9.40
2023-02-11T21:17:21.281Z,9.40
2023-02-11T21:21:24.279Z,9.40
2023-02-11T21:25:27.257Z,9.40
2023-02-11T21:29:31.562Z,9.40
2023-02-11T21:33:34.771Z,9.40
2023-02-11T21:37:37.597Z,9.40
2023-02-11T21:41:40.949Z,9.40
2023-02-11T21:45:45.457Z,9.40
2023-02-11T21:49:48.421Z,9.40
2023-02-11T21:53:54.034Z,9.40
2023-02-11T21:57:56.982Z,9.40
2023-02-11T22:02:01.297Z,9.40
2023-02-11T22:06:06.585Z,9.40
2023-02-11T22:10:10.481Z,9.40
2023-02-11T22:14:13.475Z,9.40
2023-02-11T22:18:17.920Z,9.40
2023-02-11T22:22:21.225Z,9.40
2023-02-11T22:26:25.925Z,9.30
2023-02-11T22:30:28.896Z,9.30
2023-02-11T22:34:33.237Z,9.30
2023-02-11T22:38:36.505Z,9.30
2023-02-11T22:42:39.506Z,9.30
2023-02-11T22:46:42.514Z,9.30
2023-02-11T22:50:46.910Z,9.30
2023-02-11T22:54:51.961Z,9.30
2023-02-11T22:58:58.220Z,9.30
2023-02-11T23:03:01.319Z,9.30
2023-02-11T23:07:05.644Z,9.30
2023-02-11T23:11:10.870Z,9.30
2023-02-11T23:15:13.879Z,9.30
2023-02-11T23:19:17.300Z,9.30
2023-02-11T23:23:21.615Z,9.20
